Time;durP1;ratioP1;P1;durP2;ratioP2;P2;SDS_P1;SDS_P2;PMS_P1;PMS_P2;Temp;Humidity;BMP_temperature;BMP_pressure;BME280_temperature;BME280_humidity;BME280_pressure;Samples;Min_cycle;Max_cycle;Signal;HPM_P1;HPM_P2
2023/10/12 00:00:28;;;;;;;10.60;3.88;;;16.90;99.90;;;;;;5038709;28;20060;-69
2023/10/12 00:02:57;;;;;;;12.98;4.38;;;17.00;99.90;;;;;;5038524;28;20025;-69
2023/10/12 00:05:27;;;;;;;14.75;4.97;;;17.00;99.90;;;;;;5038781;28;20017;-69
2023/10/12 00:07:55;;;;;;;12.57;4.50;;;16.90;99.90;;;;;;5038713;28;20025;-69
2023/10/12 00:10:21;;;;;;;15.90;4.28;;;16.90;99.90;;;;;;5038623;28;20098;-69
2023/10/12 00:12:52;;;;;;;12.07;4.50;;;16.90;99.90;;;;;;5038147;28;20018;-69
2023/10/12 00:17:46;;;;;;;10.60;4.07;;;16.80;99.90;;;;;;5038474;28;20033;-69
2023/10/12 00:20:22;;;;;;;15.43;4.82;;;16.80;99.90;;;;;;5037533;28;20025;-69
2023/10/12 00:22:48;;;;;;;10.30;4.13;;;16.70;99.90;;;;;;5038336;28;20032;-69
2023/10/12 00:25:16;;;;;;;13.88;4.25;;;16.60;99.90;;;;;;5038332;28;20097;-69
2023/10/12 00:27:42;;;;;;;11.93;3.88;;;16.70;99.90;;;;;;5037946;28;20021;-69
2023/10/12 00:30:09;;;;;;;11.25;3.72;;;16.80;99.90;;;;;;5037287;28;20029;-69
2023/10/12 00:32:34;;;;;;;14.82;4.32;;;16.90;99.90;;;;;;5037117;28;20067;-69
2023/10/12 00:35:00;;;;;;;13.40;4.72;;;16.90;99.90;;;;;;5037929;28;20068;-69
2023/10/12 00:37:25;;;;;;;17.00;4.13;;;16.90;99.90;;;;;;5036970;28;20064;-69
2023/10/12 00:42:20;;;;;;;11.13;3.97;;;17.00;99.90;;;;;;5037828;28;20024;-69
2023/10/12 00:44:52;;;;;;;10.38;4.32;;;16.80;99.90;;;;;;5037198;28;20035;-69
2023/10/12 00:48:07;;;;;;;10.82;3.85;;;16.80;99.90;;;;;;5037251;28;20101;-69
2023/10/12 00:50:08;;;;;;;19.95;3.83;;;16.70;99.90;;;;;;5030375;28;20083;-69
2023/10/12 00:52:46;;;;;;;12.38;4.15;;;16.80;99.90;;;;;;5037519;28;20025;-69
2023/10/12 00:55:21;;;;;;;11.25;4.07;;;16.70;99.90;;;;;;5036565;28;20029;-69
2023/10/12 00:57:49;;;;;;;14.55;4.43;;;16.50;99.90;;;;;;5037817;28;20017;-69
2023/10/12 01:00:16;;;;;;;12.82;3.95;;;16.50;99.90;;;;;;5036628;28;20056;-69
2023/10/12 01:02:44;;;;;;;13.38;4.07;;;16.40;99.90;;;;;;5037322;28;20017;-69
2023/10/12 01:05:11;;;;;;;8.20;4.07;;;16.40;99.90;;;;;;5036463;28;20037;-69
2023/10/12 01:07:37;;;;;;;12.10;5.28;;;16.30;99.90;;;;;;5037608;28;20060;-69
2023/10/12 01:10:08;;;;;;;15.43;4.30;;;16.40;99.90;;;;;;5037587;28;20017;-69
2023/10/12 01:12:34;;;;;;;17.95;3.80;;;16.30;99.90;;;;;;5036790;28;20117;-69
2023/10/12 01:15:11;;;;;;;16.63;4.00;;;16.30;99.90;;;;;;5037070;28;20060;-69
2023/10/12 01:17:36;;;;;;;9.65;5.05;;;16.30;99.90;;;;;;5037742;28;20022;-69
2023/10/12 01:20:16;;;;;;;19.08;4.40;;;16.30;99.90;;;;;;5037257;28;20021;-69
2023/10/12 01:22:42;;;;;;;13.75;4.00;;;16.20;99.90;;;;;;5037171;28;20017;-69
2023/10/12 01:25:12;;;;;;;14.73;5.25;;;16.10;99.90;;;;;;5036504;28;20037;-69
2023/10/12 01:27:43;;;;;;;15.30;4.03;;;16.10;99.90;;;;;;5035599;28;20025;-69
2023/10/12 01:30:22;;;;;;;13.27;4.78;;;16.00;99.90;;;;;;5037124;28;20048;-69
2023/10/12 01:32:54;;;;;;;18.13;4.78;;;15.90;99.90;;;;;;5036936;28;20026;-69
2023/10/12 01:35:27;;;;;;;13.20;4.57;;;15.90;99.90;;;;;;5037178;28;20033;-69
2023/10/12 01:38:00;;;;;;;8.50;3.83;;;15.90;99.90;;;;;;5036904;28;20029;-69
2023/10/12 01:43:13;;;;;;;13.10;4.28;;;15.90;99.90;;;;;;5037405;28;20112;-69
2023/10/12 01:45:42;;;;;;;12.95;4.47;;;15.90;99.90;;;;;;5036912;28;20100;-69
2023/10/12 01:48:11;;;;;;;13.45;3.60;;;15.90;99.90;;;;;;5035959;28;20120;-69
2023/10/12 01:50:38;;;;;;;8.93;4.25;;;16.00;99.90;;;;;;5036865;28;20022;-69
2023/10/12 01:53:31;;;;;;;13.48;3.65;;;16.00;99.90;;;;;;5036734;28;20103;-69
2023/10/12 01:55:54;;;;;;;9.10;4.07;;;16.00;99.90;;;;;;5036354;28;20108;-69
2023/10/12 01:58:23;;;;;;;9.48;4.45;;;16.10;99.90;;;;;;5037425;28;20041;-69
2023/10/12 02:00:52;;;;;;;8.63;4.40;;;16.00;99.90;;;;;;5037037;28;20030;-69
2023/10/12 02:03:31;;;;;;;11.25;3.97;;;16.00;99.90;;;;;;5036383;28;20053;-69
2023/10/12 02:06:13;;;;;;;10.77;4.30;;;16.00;99.90;;;;;;5036817;28;20103;-69
2023/10/12 02:08:40;;;;;;;10.98;4.03;;;15.90;99.90;;;;;;5036746;28;20017;-69
2023/10/12 02:13:34;;;;;;;12.98;4.15;;;15.90;99.90;;;;;;5036768;28;20029;-69
2023/10/12 02:16:13;;;;;;;12.25;4.55;;;15.90;99.90;;;;;;5036876;28;20096;-69
2023/10/12 02:18:39;;;;;;;10.73;4.28;;;16.00;99.90;;;;;;5036970;28;20025;-69
2023/10/12 02:23:54;;;;;;;16.98;4.95;;;16.10;99.90;;;;;;5049312;22;20041;-65
2023/10/12 02:26:38;;;;;;;9.68;3.83;;;16.20;99.90;;;;;;5017106;28;20022;-65
2023/10/12 02:31:54;;;;;;;7.97;3.83;;;16.00;99.90;;;;;;5017120;28;20101;-73
2023/10/12 02:34:25;;;;;;;12.23;3.67;;;16.00;99.90;;;;;;5016563;28;20041;-73
2023/10/12 02:37:05;;;;;;;;;;;16.00;99.90;;;;;;5017068;28;20018;-73
2023/10/12 02:39:31;;;;;;;10.27;3.35;;;15.90;99.90;;;;;;5019489;28;19905;-73
2023/10/12 02:44:36;;;;;;;13.13;4.18;;;15.90;99.90;;;;;;5020571;28;20067;-65
2023/10/12 02:47:12;;;;;;;12.18;3.75;;;15.80;99.90;;;;;;5019166;28;20029;-65
2023/10/12 02:49:40;;;;;;;10.00;3.42;;;15.80;99.90;;;;;;5019163;28;20029;-65
2023/10/12 02:52:08;;;;;;;14.32;4.13;;;15.90;99.90;;;;;;5019849;28;20022;-65
2023/10/12 02:54:50;;;;;;;9.50;3.60;;;16.00;99.90;;;;;;5020140;28;20022;-66
2023/10/12 02:57:23;;;;;;;10.27;3.80;;;16.30;99.90;;;;;;5019954;28;20018;-66
2023/10/12 02:59:57;;;;;;;11.60;3.95;;;16.70;99.90;;;;;;5019897;28;20075;-65
2023/10/12 03:02:32;;;;;;;13.43;3.67;;;16.90;99.90;;;;;;5020215;28;20097;-65
2023/10/12 03:05:17;;;;;;;18.80;4.53;;;17.00;99.90;;;;;;5018814;28;20076;-66
2023/10/12 03:07:44;;;;;;;10.70;4.15;;;17.30;99.90;;;;;;5019800;28;20018;-66
2023/10/12 03:10:26;;;;;;;9.32;3.95;;;17.40;99.90;;;;;;5018762;28;20173;-74
2023/10/12 03:12:55;;;;;;;10.60;3.58;;;17.60;99.90;;;;;;5019622;28;20022;-74
2023/10/12 03:15:41;;;;;;;11.10;3.67;;;17.70;99.90;;;;;;5019898;28;20026;-73
2023/10/12 03:18:11;;;;;;;9.38;3.20;;;17.90;99.90;;;;;;5019662;28;20072;-74
2023/10/12 03:20:37;;;;;;;17.20;4.57;;;17.90;99.90;;;;;;5019753;28;20022;-74
2023/10/12 03:23:13;;;;;;;9.88;3.47;;;18.00;99.90;;;;;;5019620;28;20022;-74
2023/10/12 03:25:43;;;;;;;9.57;3.80;;;17.90;99.90;;;;;;5019641;28;20052;-68
2023/10/12 03:28:30;;;;;;;10.05;3.40;;;18.00;99.90;;;;;;5019438;28;20030;-68
2023/10/12 03:31:11;;;;;;;8.48;3.63;;;18.00;99.90;;;;;;5019573;28;20029;-68
2023/10/12 03:33:39;;;;;;;8.15;3.70;;;17.90;99.90;;;;;;5018179;28;20041;-68
2023/10/12 03:36:25;;;;;;;8.90;3.80;;;17.90;99.90;;;;;;5019165;28;20018;-68
2023/10/12 03:42:08;;;;;;;9.63;4.10;;;18.00;99.90;;;;;;4998494;28;20060;-68
2023/10/12 03:52:43;;;;;;;12.43;4.05;;;18.00;99.90;;;;;;4997946;28;20030;-69
2023/10/12 04:02:53;;;;;;;18.55;4.68;;;18.00;99.90;;;;;;4997828;28;20034;-68
2023/10/12 04:16:27;;;;;;;19.48;5.00;;;17.80;99.90;;;;;;5007986;28;20030;-68
2023/10/12 04:21:33;;;;;;;7.95;4.00;;;17.60;99.90;;;;;;5018691;28;20048;-68
2023/10/12 04:26:44;;;;;;;11.95;4.50;;;17.60;99.90;;;;;;5018505;28;20026;-68
2023/10/12 04:29:21;;;;;;;13.82;4.10;;;17.60;99.90;;;;;;5017374;28;20034;-68
2023/10/12 04:31:50;;;;;;;12.70;4.32;;;17.60;99.90;;;;;;5018430;28;20026;-68
2023/10/12 04:34:20;;;;;;;10.68;4.40;;;17.50;99.90;;;;;;5017944;28;20100;-68
2023/10/12 04:36:53;;;;;;;11.95;4.35;;;17.40;99.90;;;;;;5017240;28;20089;-68
2023/10/12 04:39:36;;;;;;;13.48;4.18;;;17.40;99.90;;;;;;5018268;28;20037;-68
2023/10/12 04:42:11;;;;;;;11.18;4.93;;;17.30;99.90;;;;;;5017440;28;20165;-68
2023/10/12 04:44:43;;;;;;;17.27;4.55;;;17.30;99.90;;;;;;5017857;28;20029;-68
2023/10/12 04:47:15;;;;;;;13.40;4.68;;;17.30;99.90;;;;;;5017977;28;20105;-67
2023/10/12 04:57:34;;;;;;;14.80;4.63;;;17.50;99.90;;;;;;5018045;28;19999;-68
2023/10/12 05:05:15;;;;;;;16.13;5.27;;;17.10;99.90;;;;;;5018266;28;20033;-68
2023/10/12 05:07:53;;;;;;;23.58;5.68;;;17.00;99.90;;;;;;5016735;28;20030;-68
2023/10/12 05:10:27;;;;;;;13.50;5.45;;;17.00;99.90;;;;;;5016752;28;20036;-68
2023/10/12 05:12:57;;;;;;;14.43;4.13;;;16.90;99.90;;;;;;5016617;28;20033;-68
2023/10/12 05:15:27;;;;;;;11.18;4.38;;;16.90;99.90;;;;;;5016812;28;20030;-68
2023/10/12 05:17:53;;;;;;;11.73;5.13;;;16.90;99.90;;;;;;5016634;28;20054;-68
2023/10/12 05:20:22;;;;;;;12.88;4.38;;;16.90;99.90;;;;;;5017338;28;20017;-68
2023/10/12 05:22:48;;;;;;;19.33;4.47;;;16.90;99.90;;;;;;5017389;28;20017;-68
2023/10/12 05:25:13;;;;;;;13.60;4.78;;;16.80;99.90;;;;;;5017205;28;20042;-68
2023/10/12 05:27:39;;;;;;;11.43;4.53;;;16.80;99.90;;;;;;5016371;28;20022;-68
2023/10/12 05:30:14;;;;;;;11.77;4.30;;;16.80;99.90;;;;;;5016446;28;20033;-67
2023/10/12 05:32:55;;;;;;;10.77;4.20;;;16.90;99.90;;;;;;5017269;28;20041;-68
2023/10/12 05:35:46;;;;;;;;;;;16.90;99.90;;;;;;5017644;28;20029;-68
2023/10/12 05:38:07;;;;;;;10.10;4.20;;;16.90;99.90;;;;;;5017050;28;19912;-68
2023/10/12 05:40:35;;;;;;;9.30;4.13;;;17.00;99.90;;;;;;5017239;28;20018;-67
2023/10/12 05:43:02;;;;;;;10.20;4.47;;;17.30;99.90;;;;;;5016354;28;20089;-67
2023/10/12 05:45:31;;;;;;;14.18;4.97;;;17.30;99.90;;;;;;5015970;28;20026;-67
2023/10/12 05:47:57;;;;;;;14.35;4.38;;;17.30;99.90;;;;;;5017277;28;20101;-68
2023/10/12 05:50:26;;;;;;;12.90;4.00;;;17.20;99.90;;;;;;5016130;28;20053;-68
2023/10/12 05:52:52;;;;;;;12.10;4.68;;;17.20;99.90;;;;;;5017396;28;20025;-68
2023/10/12 05:55:21;;;;;;;15.82;4.50;;;17.40;99.90;;;;;;5016906;28;20032;-68
2023/10/12 05:57:50;;;;;;;11.93;4.35;;;17.40;99.90;;;;;;5016363;28;20057;-68
2023/10/12 06:01:05;;;;;;;13.80;4.50;;;17.50;99.90;;;;;;5016232;28;20026;-68
2023/10/12 06:03:05;;;;;;;11.90;4.40;;;17.60;99.90;;;;;;5013916;28;20100;-68
2023/10/12 06:05:34;;;;;;;17.08;4.82;;;17.70;99.90;;;;;;5017085;28;20026;-68
2023/10/12 06:08:03;;;;;;;12.07;5.00;;;17.60;99.90;;;;;;5017070;28;20073;-68
2023/10/12 06:10:29;;;;;;;17.35;4.53;;;17.70;99.90;;;;;;5017458;28;20070;-68
2023/10/12 06:12:56;;;;;;;8.25;3.88;;;17.70;99.90;;;;;;5016307;28;20022;-68
2023/10/12 06:15:23;;;;;;;13.95;5.28;;;17.70;99.90;;;;;;5019969;28;20026;-68
2023/10/12 06:17:51;;;;;;;20.95;4.25;;;17.60;99.90;;;;;;5020694;28;20018;-68
2023/10/12 06:20:30;;;;;;;11.73;4.35;;;17.50;99.90;;;;;;5020149;28;20014;-67
2023/10/12 06:22:56;;;;;;;13.43;4.45;;;17.60;99.90;;;;;;5020662;28;20064;-68
2023/10/12 06:25:22;;;;;;;15.50;4.88;;;17.60;99.90;;;;;;5019580;28;20040;-68
2023/10/12 06:27:49;;;;;;;8.52;4.30;;;17.60;99.90;;;;;;5019570;28;20021;-68
2023/10/12 06:30:17;;;;;;;11.77;4.53;;;17.50;99.90;;;;;;5020681;28;20033;-68
2023/10/12 06:32:46;;;;;;;11.60;4.97;;;17.30;99.90;;;;;;5019837;28;20049;-68
2023/10/12 06:35:13;;;;;;;13.05;4.88;;;17.40;99.90;;;;;;5020299;28;20022;-67
2023/10/12 06:45:51;;;;;;;13.73;4.90;;;17.50;99.90;;;;;;5008706;28;20029;-68
2023/10/12 06:54:05;;;;;;;15.07;5.18;;;17.40;99.90;;;;;;4998740;28;20041;-67
2023/10/12 06:56:31;;;;;;;14.48;4.13;;;17.30;99.90;;;;;;4999162;28;20125;-68
2023/10/12 06:59:08;;;;;;;11.10;4.68;;;17.30;99.90;;;;;;4998825;28;20099;-68
2023/10/12 07:01:39;;;;;;;12.10;4.35;;;17.40;99.90;;;;;;4998715;28;20085;-68
2023/10/12 07:04:27;;;;;;;13.77;4.77;;;17.60;99.90;;;;;;4998731;28;20042;-68
2023/10/12 07:06:56;;;;;;;13.70;4.60;;;17.60;99.90;;;;;;4998600;28;20023;-68
2023/10/12 07:09:48;;;;;;;10.18;5.63;;;17.80;99.90;;;;;;4998840;28;20026;-68
2023/10/12 07:12:14;;;;;;;;;;;17.80;99.90;;;;;;4999184;28;20029;-68
2023/10/12 07:14:52;;;;;;;12.80;4.93;;;17.70;99.90;;;;;;4998712;28;19917;-68
2023/10/12 07:17:18;;;;;;;15.27;4.90;;;17.70;99.90;;;;;;4998581;28;20030;-68
2023/10/12 07:19:47;;;;;;;15.55;5.50;;;17.40;99.90;;;;;;4998482;28;20034;-68
2023/10/12 07:22:16;;;;;;;15.85;7.32;;;17.30;99.90;;;;;;4998448;28;20030;-68
2023/10/12 07:24:45;;;;;;;14.75;5.53;;;17.10;99.90;;;;;;4997011;28;20133;-68
2023/10/12 07:27:18;;;;;;;17.83;4.95;;;16.90;99.90;;;;;;4998241;28;20035;-69
2023/10/12 07:29:47;;;;;;;10.88;4.07;;;16.80;99.90;;;;;;5004151;28;20057;-69
2023/10/12 07:34:52;;;;;;;13.10;4.68;;;16.60;99.90;;;;;;5019483;28;20026;-68
2023/10/12 07:37:18;;;;;;;15.95;5.25;;;16.50;99.90;;;;;;5018770;28;20107;-68
2023/10/12 07:39:44;;;;;;;17.50;4.80;;;16.60;99.90;;;;;;5019251;28;20025;-69
2023/10/12 07:42:14;;;;;;;14.55;4.35;;;16.50;99.90;;;;;;5018338;28;20029;-69
2023/10/12 07:44:42;;;;;;;11.20;4.55;;;16.50;99.90;;;;;;5018101;28;20030;-69
2023/10/12 07:47:18;;;;;;;11.88;4.22;;;16.50;99.90;;;;;;5019072;28;20030;-68
2023/10/12 07:49:57;;;;;;;9.57;4.40;;;16.60;99.90;;;;;;5019187;28;20041;-68
2023/10/12 07:52:31;;;;;;;13.52;5.88;;;16.70;99.90;;;;;;5019047;28;20026;-67
2023/10/12 07:54:58;;;;;;;12.88;5.57;;;16.80;99.90;;;;;;5018846;28;20030;-68
2023/10/12 07:57:29;;;;;;;11.23;4.80;;;16.80;99.90;;;;;;5019005;28;20048;-67
2023/10/12 08:02:59;;;;;;;25.80;6.00;;;16.80;99.90;;;;;;5019017;28;20030;-67
2023/10/12 08:30:21;;;;;;;12.75;5.60;;;17.10;99.90;;;;;;5038560;28;20035;-65
2023/10/12 08:39:38;;;;;;;13.63;5.55;;;17.50;99.90;;;;;;5037954;28;20022;-65
2023/10/12 08:44:55;;;;;;;14.35;4.32;;;17.60;99.90;;;;;;5037749;28;20026;-65
2023/10/12 08:49:53;;;;;;;13.50;5.10;;;17.50;99.90;;;;;;5038029;28;20033;-65
2023/10/12 08:52:27;;;;;;;15.25;5.75;;;17.40;99.90;;;;;;5036874;28;20087;-65
2023/10/12 08:54:57;;;;;;;10.40;5.10;;;17.40;99.90;;;;;;5037587;28;20021;-65
2023/10/12 08:57:56;;;;;;;15.75;4.80;;;17.40;99.90;;;;;;5037839;28;20021;-66
2023/10/12 09:03:00;;;;;;;14.93;5.60;;;17.40;99.90;;;;;;5037965;28;20057;-65
2023/10/12 09:05:30;;;;;;;15.07;5.45;;;17.30;99.90;;;;;;5037705;28;20044;-65
2023/10/12 09:08:24;;;;;;;12.82;5.63;;;17.30;99.90;;;;;;5037461;28;20087;-65
2023/10/12 09:10:58;;;;;;;11.63;4.95;;;17.40;99.90;;;;;;5036739;28;20029;-65
2023/10/12 09:13:27;;;;;;;12.60;5.00;;;17.40;99.90;;;;;;5037214;28;20026;-65
2023/10/12 09:15:58;;;;;;;15.80;5.18;;;17.40;99.90;;;;;;5036711;28;20108;-65
2023/10/12 09:18:43;;;;;;;12.10;6.03;;;17.50;99.90;;;;;;5037242;28;20014;-65
2023/10/12 09:23:50;;;;;;;15.82;4.90;;;17.40;99.90;;;;;;5037147;28;20033;-65
2023/10/12 09:26:30;;;;;;;20.10;4.88;;;17.40;99.90;;;;;;5036594;28;20025;-65
2023/10/12 09:36:38;;;;;;;10.65;5.15;;;17.40;99.90;;;;;;5037426;28;20100;-66
2023/10/12 09:39:14;;;;;;;12.57;5.07;;;17.40;99.90;;;;;;5036980;28;20017;-65
2023/10/12 09:41:42;;;;;;;17.33;5.00;;;17.30;99.90;;;;;;5036144;28;20033;-65
2023/10/12 09:44:11;;;;;;;12.75;5.18;;;17.20;99.90;;;;;;5036105;28;20033;-65
2023/10/12 09:46:46;;;;;;;9.00;4.68;;;17.20;99.90;;;;;;5036182;28;20021;-65
2023/10/12 09:49:22;;;;;;;16.30;5.13;;;17.40;99.90;;;;;;5039364;28;20052;-65
2023/10/12 09:52:01;;;;;;;13.75;4.95;;;17.50;99.90;;;;;;5040986;28;20048;-65
2023/10/12 09:54:45;;;;;;;13.02;4.65;;;17.40;99.90;;;;;;5039871;28;20035;-65
2023/10/12 09:57:25;;;;;;;16.42;5.85;;;17.40;99.90;;;;;;5040341;28;20021;-65
2023/10/12 09:59:53;;;;;;;15.95;5.43;;;17.30;99.90;;;;;;5039928;28;20017;-65
2023/10/12 10:02:30;;;;;;;8.93;4.65;;;17.20;99.90;;;;;;5040042;28;20060;-65
2023/10/12 10:07:36;;;;;;;15.55;5.38;;;17.20;99.90;;;;;;5041164;28;20034;-65
2023/10/12 10:10:08;;;;;;;13.43;4.85;;;17.20;99.90;;;;;;5040539;28;20136;-65
2023/10/12 10:12:36;;;;;;;12.60;5.57;;;17.30;99.90;;;;;;5040705;28;20121;-65
2023/10/12 10:15:13;;;;;;;13.40;5.35;;;17.30;99.90;;;;;;5040618;28;20045;-65
2023/10/12 10:17:48;;;;;;;9.30;4.88;;;17.30;99.90;;;;;;5040868;28;20025;-65
2023/10/12 10:22:56;;;;;;;11.68;4.20;;;17.50;99.90;;;;;;5040825;28;20021;-65
2023/10/12 10:25:27;;;;;;;11.27;5.30;;;17.60;99.90;;;;;;5040355;28;20032;-65
2023/10/12 10:27:56;;;;;;;14.05;5.07;;;17.60;99.90;;;;;;5040372;28;20026;-65
2023/10/12 10:30:26;;;;;;;13.07;5.55;;;17.50;99.90;;;;;;5040255;28;20067;-65
2023/10/12 10:33:13;;;;;;;12.23;4.85;;;17.40;99.90;;;;;;5040370;28;20022;-65
2023/10/12 10:35:59;;;;;;;11.43;5.72;;;17.30;99.90;;;;;;5040154;28;20047;-65
2023/10/12 10:38:34;;;;;;;16.88;6.35;;;17.40;99.90;;;;;;5039839;28;20021;-66
2023/10/12 10:41:18;;;;;;;10.90;5.35;;;17.50;99.90;;;;;;5040071;28;20057;-65
2023/10/12 10:43:44;;;;;;;16.45;6.10;;;17.40;99.90;;;;;;5040158;28;20049;-65
2023/10/12 10:46:10;;;;;;;13.40;5.63;;;17.40;99.90;;;;;;5039182;28;20033;-65
2023/10/12 10:48:38;;;;;;;10.07;5.28;;;17.40;99.90;;;;;;5040113;28;20104;-66
2023/10/12 10:51:10;;;;;;;13.00;5.15;;;17.30;99.90;;;;;;5039981;28;20025;-65
2023/10/12 10:53:37;;;;;;;12.75;5.22;;;17.20;99.90;;;;;;5039913;28;20025;-65
2023/10/12 10:56:14;;;;;;;20.95;6.13;;;17.10;99.90;;;;;;5039483;28;20030;-65
2023/10/12 10:58:41;;;;;;;12.65;5.60;;;17.20;99.90;;;;;;5039776;28;20091;-65
2023/10/12 11:01:12;;;;;;;16.13;5.30;;;17.20;99.90;;;;;;5039634;28;20017;-65
2023/10/12 11:03:43;;;;;;;16.75;6.28;;;17.20;99.90;;;;;;5038797;28;20033;-65
2023/10/12 11:06:21;;;;;;;12.20;5.20;;;17.30;99.90;;;;;;5039806;28;20030;-65
2023/10/12 11:09:07;;;;;;;10.85;5.00;;;17.30;99.90;;;;;;5039918;28;20162;-66
2023/10/12 11:11:45;;;;;;;13.52;5.18;;;17.30;99.90;;;;;;5040103;28;20029;-66
2023/10/12 11:14:14;;;;;;;10.15;4.70;;;17.30;99.90;;;;;;5038429;28;20136;-66
2023/10/12 11:16:45;;;;;;;16.38;5.68;;;17.50;99.90;;;;;;5038892;28;20036;-66
2023/10/12 11:19:11;;;;;;;11.38;4.78;;;17.60;99.90;;;;;;5039459;28;20026;-65
2023/10/12 11:21:46;;;;;;;10.48;4.13;;;17.80;99.90;;;;;;5038430;28;20057;-65
2023/10/12 11:24:14;;;;;;;11.10;4.28;;;18.00;99.90;;;;;;5038492;28;20040;-66
2023/10/12 11:26:57;;;;;;;15.93;5.00;;;18.00;99.90;;;;;;5039213;28;20079;-65
2023/10/12 11:29:24;;;;;;;13.88;4.78;;;18.00;99.90;;;;;;5039123;28;20052;-66
2023/10/12 11:32:09;;;;;;;10.02;4.40;;;18.00;99.90;;;;;;5038753;28;20033;-75
2023/10/12 11:34:45;;;;;;;12.02;5.20;;;17.90;99.90;;;;;;5038959;28;20112;-75
2023/10/12 11:37:14;;;;;;;8.35;4.28;;;18.10;99.90;;;;;;5039023;28;20072;-75
2023/10/12 11:39:44;;;;;;;11.30;5.30;;;18.30;99.90;;;;;;5038557;28;20317;-75
2023/10/12 11:42:12;;;;;;;10.65;4.25;;;18.40;99.90;;;;;;5038860;28;20017;-75
2023/10/12 11:44:42;;;;;;;11.38;4.80;;;18.60;99.90;;;;;;5038006;28;20079;-75
2023/10/12 11:47:08;;;;;;;12.15;4.57;;;18.80;99.90;;;;;;5038048;28;20114;-75
2023/10/12 11:49:48;;;;;;;10.88;4.70;;;19.00;99.90;;;;;;5038354;28;20025;-75
2023/10/12 11:52:21;;;;;;;15.68;5.45;;;18.90;99.90;;;;;;5038661;28;20057;-76
2023/10/12 11:54:48;;;;;;;10.48;5.35;;;18.70;99.90;;;;;;5039050;28;20028;-75
2023/10/12 11:57:14;;;;;;;17.52;5.38;;;18.30;99.90;;;;;;5039008;28;20018;-75
2023/10/12 11:59:39;;;;;;;14.18;5.25;;;18.20;99.90;;;;;;5038703;28;20021;-75
2023/10/12 12:02:16;;;;;;;24.13;6.82;;;18.00;99.90;;;;;;5038773;28;20040;-75
2023/10/12 12:04:42;;;;;;;12.50;5.03;;;18.00;99.90;;;;;;5037614;28;20061;-75
2023/10/12 12:07:10;;;;;;;11.07;5.45;;;18.00;99.90;;;;;;5037680;28;20025;-75
2023/10/12 12:09:39;;;;;;;16.77;5.15;;;18.10;99.90;;;;;;5038368;28;20021;-76
2023/10/12 12:12:07;;;;;;;14.95;4.90;;;18.20;99.90;;;;;;5037630;28;20030;-75
2023/10/12 12:14:33;;;;;;;10.02;4.47;;;18.50;99.90;;;;;;5038625;28;20082;-76
2023/10/12 12:17:01;;;;;;;9.35;4.38;;;18.80;99.90;;;;;;5038294;28;20108;-76
2023/10/12 12:19:26;;;;;;;10.45;4.38;;;19.00;99.90;;;;;;5037546;28;20048;-76
2023/10/12 12:21:53;;;;;;;9.90;4.25;;;19.20;99.90;;;;;;5037345;28;20021;-76
2023/10/12 12:24:27;;;;;;;17.40;4.72;;;19.40;99.90;;;;;;5038176;28;20116;-76
2023/10/12 12:26:53;;;;;;;8.15;4.30;;;19.20;99.90;;;;;;5037584;28;20030;-74
2023/10/12 12:29:25;;;;;;;15.98;5.32;;;19.30;99.90;;;;;;5037189;28;20032;-75
2023/10/12 12:31:51;;;;;;;12.10;4.45;;;19.30;99.90;;;;;;5037044;28;20051;-75
2023/10/12 12:37:05;;;;;;;14.32;5.10;;;18.90;99.90;;;;;;5038517;28;20032;-75
2023/10/12 12:39:34;;;;;;;12.40;4.63;;;18.80;99.90;;;;;;5037761;28;20028;-75
2023/10/12 12:42:10;;;;;;;13.38;5.32;;;19.00;99.90;;;;;;5037770;28;20244;-76
2023/10/12 12:44:37;;;;;;;12.38;5.13;;;19.00;99.90;;;;;;5037759;28;20028;-75
2023/10/12 12:47:05;;;;;;;17.30;5.80;;;19.00;99.90;;;;;;5037078;28;20053;-75
2023/10/12 12:49:32;;;;;;;14.50;4.78;;;19.20;99.90;;;;;;5036822;28;20030;-75
2023/10/12 12:51:57;;;;;;;15.95;5.95;;;19.20;99.90;;;;;;5037033;28;20026;-76
2023/10/12 12:54:24;;;;;;;11.35;4.88;;;19.50;99.90;;;;;;5037378;28;20017;-76
2023/10/12 12:56:53;;;;;;;12.55;4.45;;;19.80;99.90;;;;;;5037480;28;20017;-77
2023/10/12 12:59:21;;;;;;;11.90;5.15;;;20.00;99.90;;;;;;5036686;28;20021;-77
2023/10/12 13:01:47;;;;;;;7.47;4.03;;;20.30;99.90;;;;;;5037571;28;20020;-76
2023/10/12 13:04:14;;;;;;;12.65;4.40;;;20.50;99.90;;;;;;5036819;28;20025;-79
2023/10/12 13:06:39;;;;;;;12.38;4.18;;;20.40;99.90;;;;;;5036745;28;20025;-76
2023/10/12 13:09:05;;;;;;;10.90;4.70;;;20.30;99.90;;;;;;5036444;28;20116;-76
2023/10/12 13:11:32;;;;;;;12.88;4.65;;;20.20;99.90;;;;;;5037341;28;20030;-77
2023/10/12 13:13:57;;;;;;;8.05;4.05;;;20.20;99.90;;;;;;5036241;28;20025;-78
2023/10/12 13:16:23;;;;;;;8.88;4.47;;;20.30;99.90;;;;;;5037319;28;20033;-75
2023/10/12 13:18:48;;;;;;;8.63;4.30;;;20.30;99.90;;;;;;5037524;28;20025;-77
2023/10/12 13:21:15;;;;;;;11.65;4.32;;;20.20;99.90;;;;;;5036581;28;20021;-78
2023/10/12 13:23:42;;;;;;;9.73;4.63;;;20.20;99.90;;;;;;5036354;28;20045;-76
2023/10/12 13:26:12;;;;;;;9.05;3.63;;;20.40;99.90;;;;;;5037266;28;20104;-76
2023/10/12 13:28:40;;;;;;;14.18;4.97;;;20.50;99.90;;;;;;5037181;28;20025;-77
2023/10/12 13:31:06;;;;;;;9.32;4.28;;;20.50;99.90;;;;;;5037046;28;20029;-74
2023/10/12 13:33:32;;;;;;;18.42;6.25;;;20.30;99.90;;;;;;5036048;28;20029;-73
2023/10/12 13:35:58;;;;;;;12.38;4.85;;;20.20;99.90;;;;;;5036196;28;20017;-78
2023/10/12 13:38:29;;;;;;;11.30;4.28;;;20.20;99.90;;;;;;5036960;28;20022;-78
2023/10/12 13:40:55;;;;;;;12.37;4.20;;;20.10;99.90;;;;;;5037322;28;20022;-76
2023/10/12 13:43:30;;;;;;;8.35;4.50;;;20.00;99.90;;;;;;5036980;28;20018;-75
2023/10/12 13:45:56;;;;;;;17.42;4.50;;;20.00;99.90;;;;;;5037057;28;20049;-75
2023/10/12 13:48:25;;;;;;;10.02;4.60;;;19.90;99.90;;;;;;5037033;28;20052;-75
2023/10/12 13:50:53;;;;;;;9.70;4.57;;;19.80;99.90;;;;;;5037024;28;20030;-75
2023/10/12 13:53:24;;;;;;;10.13;4.97;;;19.80;99.90;;;;;;5036081;28;20022;-74
2023/10/12 13:55:50;;;;;;;9.73;4.57;;;19.70;99.90;;;;;;5036751;28;20025;-74
2023/10/12 13:58:16;;;;;;;12.98;4.43;;;19.70;99.90;;;;;;5035993;28;20030;-75
2023/10/12 14:00:42;;;;;;;14.40;5.43;;;19.60;99.90;;;;;;5035878;28;20021;-75
2023/10/12 14:03:10;;;;;;;11.73;5.60;;;19.50;99.90;;;;;;5036122;28;20018;-75
2023/10/12 14:05:40;;;;;;;9.95;3.80;;;19.50;99.90;;;;;;5036646;28;20021;-75
2023/10/12 14:08:09;;;;;;;9.50;4.03;;;19.50;99.90;;;;;;5035820;28;20030;-75
2023/10/12 14:10:42;;;;;;;10.75;4.00;;;19.60;99.90;;;;;;5036623;28;20022;-75
2023/10/12 14:13:08;;;;;;;16.63;4.82;;;19.60;99.90;;;;;;5035849;28;20025;-75
2023/10/12 14:15:38;;;;;;;13.27;4.90;;;19.50;99.90;;;;;;5036548;28;20139;-75
2023/10/12 14:18:04;;;;;;;11.70;4.93;;;19.50;99.90;;;;;;5036046;28;20029;-74
2023/10/12 14:20:32;;;;;;;7.55;4.28;;;19.50;99.90;;;;;;5036572;28;20025;-75
2023/10/12 14:22:59;;;;;;;10.55;5.13;;;19.50;99.90;;;;;;5036606;28;20014;-76
2023/10/12 14:25:28;;;;;;;10.50;4.82;;;19.50;99.90;;;;;;5036666;28;20036;-70
2023/10/12 14:27:55;;;;;;;12.32;4.95;;;19.40;99.90;;;;;;5035608;28;20033;-70
2023/10/12 14:30:28;;;;;;;13.15;5.78;;;19.40;99.90;;;;;;5036590;28;20052;-69
2023/10/12 14:33:02;;;;;;;14.13;6.00;;;19.30;99.90;;;;;;5036843;28;20044;-69
2023/10/12 14:35:29;;;;;;;18.42;7.38;;;19.20;99.90;;;;;;5038957;28;20032;-70
2023/10/12 14:37:55;;;;;;;14.65;5.80;;;19.20;99.90;;;;;;5040396;28;20030;-70
2023/10/12 14:40:31;;;;;;;16.00;6.07;;;19.10;99.90;;;;;;5040434;28;20067;-69
2023/10/12 14:43:06;;;;;;;14.18;5.00;;;19.10;99.90;;;;;;5039966;28;20104;-69
2023/10/12 14:45:36;;;;;;;10.10;5.18;;;19.10;99.90;;;;;;5040507;28;20029;-70
2023/10/12 14:48:09;;;;;;;11.07;4.85;;;19.00;99.90;;;;;;5040078;28;20029;-70
2023/10/12 14:50:35;;;;;;;11.15;4.47;;;19.00;99.90;;;;;;5040108;28;20025;-70
2023/10/12 14:53:01;;;;;;;16.25;5.38;;;18.90;99.90;;;;;;5039983;28;20033;-70
2023/10/12 14:55:27;;;;;;;11.23;5.22;;;18.90;99.90;;;;;;5038799;28;20040;-69
2023/10/12 14:57:53;;;;;;;8.95;5.15;;;18.80;99.90;;;;;;5039031;28;20022;-70
2023/10/12 15:00:24;;;;;;;15.63;6.00;;;18.70;99.90;;;;;;5039407;28;20047;-70
2023/10/12 15:02:55;;;;;;;16.10;5.55;;;18.60;99.90;;;;;;5038941;28;20026;-70
2023/10/12 15:05:22;;;;;;;16.60;5.87;;;18.60;99.90;;;;;;5039921;28;20029;-70
2023/10/12 15:07:48;;;;;;;15.05;5.82;;;18.50;99.90;;;;;;5039759;28;20022;-70
2023/10/12 15:10:17;;;;;;;14.63;5.63;;;18.40;99.90;;;;;;5039853;28;20021;-69
2023/10/12 15:12:43;;;;;;;13.38;5.95;;;18.40;99.90;;;;;;5039773;28;20021;-70
2023/10/12 15:15:11;;;;;;;16.38;6.18;;;18.30;99.90;;;;;;5038488;28;20030;-69
2023/10/12 15:17:39;;;;;;;15.18;6.68;;;18.30;99.90;;;;;;5039498;28;20069;-69
2023/10/12 15:20:06;;;;;;;15.50;5.70;;;18.30;99.90;;;;;;5039376;28;20031;-69